Time,TemperatureF,DewpointF,PressureIn,WindDirection,WindDirectionDegrees,WindSpeedMPH,WindSpeedGustMPH,Humidity,HourlyPrecipIn,Conditions,Clouds,dailyrainin,SoftwareType,DateUTC
2013-03-23 00:00:00,32.2,28.2,30.32,ENE,72,0.0,0.0,85,0.00,,---,0.16,VWS V14.01,2013-03-23 07:00:00,
2013-03-23 00:05:00,32.2,28.5,30.35,ENE,72,0.0,0.0,86,0.00,,---,0.00,VWS V14.01,2013-03-23 07:05:00,
2013-03-23 00:10:00,32.2,28.5,30.35,ENE,72,0.0,0.0,86,0.00,,---,0.00,VWS V14.01,2013-03-23 07:10:00,
2013-03-23 00:15:00,32.0,28.3,30.35,ENE,72,0.0,0.0,86,0.00,,---,0.00,VWS V14.01,2013-03-23 07:15:00,
2013-03-23 00:20:00,31.8,28.1,30.32,ENE,72,0.0,0.0,86,0.00,,---,0.00,VWS V14.01,2013-03-23 07:20:00,
2013-03-23 00:25:00,31.8,28.1,30.32,ENE,72,0.0,0.0,86,0.00,,---,0.00,VWS V14.01,2013-03-23 07:25:00,
2013-03-23 00:30:00,31.6,27.9,30.32,ENE,72,0.0,0.0,86,0.00,,---,0.00,VWS V14.01,2013-03-23 07:30:00,
2013-03-23 00:35:00,31.6,27.9,30.32,ENE,72,0.0,0.0,86,0.00,,---,0.00,VWS V14.01,2013-03-23 07:35:00,
2013-03-23 00:40:00,31.6,27.9,30.32,ENE,72,0.0,0.0,86,0.00,,---,0.00,VWS V14.01,2013-03-23 07:40:00,
2013-03-23 00:45:00,31.6,27.9,30.32,ENE,72,0.0,0.0,86,0.00,,---,0.00,VWS V14.01,2013-03-23 07:45:00,
2013-03-23 00:50:00,31.6,27.9,30.35,ENE,72,0.0,0.0,86,0.00,,---,0.00,VWS V14.01,2013-03-23 07:50:00,
2013-03-23 00:55:00,31.6,27.9,30.35,ENE,72,0.0,0.0,86,0.00,,---,0.00,VWS V14.01,2013-03-23 07:55:00,
2013-03-23 01:00:00,31.6,28.2,30.35,ENE,72,0.0,0.0,87,0.00,,---,0.00,VWS V14.01,2013-03-23 08:00:00,
2013-03-23 01:05:00,31.6,28.2,30.35,ENE,72,0.0,0.0,87,0.00,,---,0.00,VWS V14.01,2013-03-23 08:05:00,
2013-03-23 01:10:00,31.6,28.2,30.35,ENE,72,0.0,0.0,87,0.00,,---,0.00,VWS V14.01,2013-03-23 08:10:00,
2013-03-23 01:15:00,31.6,28.2,30.35,ENE,72,0.0,0.0,87,0.00,,---,0.00,VWS V14.01,2013-03-23 08:15:00,
2013-03-23 01:20:00,31.8,28.4,30.35,ENE,72,0.0,0.0,87,0.00,,---,0.00,VWS V14.01,2013-03-23 08:20:00,
2013-03-23 01:25:00,31.8,28.4,30.35,ENE,72,0.0,0.0,87,0.00,,---,0.00,VWS V14.01,2013-03-23 08:25:00,
2013-03-23 01:30:00,31.8,28.4,30.35,ENE,72,0.0,0.0,87,0.00,,---,0.00,VWS V14.01,2013-03-23 08:30:00,
2013-03-23 01:35:00,31.8,28.4,30.35,ENE,72,0.0,0.0,87,0.00,,---,0.00,VWS V14.01,2013-03-23 08:35:00,
2013-03-23 01:40:00,31.8,28.7,30.35,ENE,72,0.0,0.0,88,0.00,,---,0.00,VWS V14.01,2013-03-23 08:40:00,
2013-03-23 01:44:00,31.8,28.7,30.35,ENE,72,0.0,0.0,88,0.00,,---,0.00,VWS V14.01,2013-03-23 08:44:00,
2013-03-23 01:49:00,31.8,28.7,30.35,ENE,72,0.0,0.0,88,0.00,,---,0.00,VWS V14.01,2013-03-23 08:49:00,
2013-03-23 01:54:00,31.8,28.7,30.35,ENE,72,0.0,0.0,88,0.00,,---,0.00,VWS V14.01,2013-03-23 08:54:00,
2013-03-23 01:59:00,31.8,28.7,30.35,ENE,72,0.0,0.0,88,0.00,,---,0.00,VWS V14.01,2013-03-23 08:59:00,
2013-03-23 02:04:00,31.8,28.7,30.35,ENE,72,0.0,0.0,88,0.00,,---,0.00,VWS V14.01,2013-03-23 09:04:00,
2013-03-23 02:09:00,31.8,28.7,30.35,ENE,72,0.0,0.0,88,0.00,,---,0.00,VWS V14.01,2013-03-23 09:09:00,
2013-03-23 02:14:00,31.8,28.7,30.35,ENE,72,0.0,0.0,88,0.00,,---,0.00,VWS V14.01,2013-03-23 09:14:00,
2013-03-23 02:19:00,31.8,28.7,30.35,ENE,72,0.0,0.0,88,0.00,,---,0.00,VWS V14.01,2013-03-23 09:19:00,
2013-03-23 02:24:00,31.8,28.7,30.35,ENE,72,0.0,0.0,88,0.00,,---,0.00,VWS V14.01,2013-03-23 09:24:00,
2013-03-23 02:29:00,31.8,28.7,30.35,ENE,72,0.0,0.0,88,0.00,,---,0.00,VWS V14.01,2013-03-23 09:29:00,
2013-03-23 02:34:00,31.6,28.8,30.35,ENE,72,0.0,0.0,89,0.00,,---,0.00,VWS V14.01,2013-03-23 09:34:00,
2013-03-23 02:39:00,31.6,28.8,30.35,ENE,72,0.0,0.0,89,0.00,,---,0.00,VWS V14.01,2013-03-23 09:39:00,
2013-03-23 02:44:00,31.6,28.8,30.35,ENE,72,0.0,0.0,89,0.00,,---,0.00,VWS V14.01,2013-03-23 09:44:00,
2013-03-23 02:49:00,31.6,28.8,30.35,ENE,72,0.0,0.0,89,0.00,,---,0.00,VWS V14.01,2013-03-23 09:49:00,
2013-03-23 02:54:00,31.6,28.8,30.35,ENE,72,0.0,0.0,89,0.00,,---,0.00,VWS V14.01,2013-03-23 09:54:00,
2013-03-23 02:59:00,31.6,28.8,30.35,ENE,72,0.0,0.0,89,0.00,,---,0.00,VWS V14.01,2013-03-23 09:59:00,
2013-03-23 03:04:00,31.6,28.8,30.35,ENE,72,0.0,0.0,89,0.00,,---,0.00,VWS V14.01,2013-03-23 10:04:00,
2013-03-23 03:09:00,31.6,28.8,30.35,ENE,72,0.0,0.0,89,0.00,,---,0.00,VWS V14.01,2013-03-23 10:09:00,
2013-03-23 03:14:00,31.6,28.8,30.35,ENE,72,0.0,0.0,89,0.00,,---,0.00,VWS V14.01,2013-03-23 10:14:00,
2013-03-23 03:19:00,31.6,28.8,30.35,ENE,72,0.0,0.0,89,0.00,,---,0.00,VWS V14.01,2013-03-23 10:19:00,
2013-03-23 03:24:00,31.6,28.8,30.35,ENE,72,0.0,0.0,89,0.00,,---,0.00,VWS V14.01,2013-03-23 10:24:00,
2013-03-23 03:29:00,31.8,29.0,30.35,ENE,72,0.0,0.0,89,0.00,,---,0.00,VWS V14.01,2013-03-23 10:29:00,
2013-03-23 03:34:00,31.8,29.0,30.35,ENE,72,0.0,0.0,89,0.00,,---,0.00,VWS V14.01,2013-03-23 10:34:00,
2013-03-23 03:39:00,32.0,29.4,30.35,ENE,72,0.0,0.0,90,0.00,,---,0.00,VWS V14.01,2013-03-23 10:39:00,
2013-03-23 03:44:00,32.0,29.4,30.35,ENE,72,0.0,0.0,90,0.00,,---,0.00,VWS V14.01,2013-03-23 10:44:00,
2013-03-23 03:49:00,32.0,29.4,30.35,ENE,72,0.0,0.0,90,0.00,,---,0.00,VWS V14.01,2013-03-23 10:49:00,
2013-03-23 03:54:00,32.0,29.4,30.35,ENE,72,0.0,0.0,90,0.00,,---,0.00,VWS V14.01,2013-03-23 10:54:00,
2013-03-23 03:59:00,32.0,29.4,30.35,ENE,72,0.0,0.0,90,0.00,,---,0.00,VWS V14.01,2013-03-23 10:59:00,
2013-03-23 04:04:00,32.2,29.6,30.35,ENE,72,0.0,0.0,90,0.00,,---,0.00,VWS V14.01,2013-03-23 11:04:00,
2013-03-23 04:09:00,32.2,29.6,30.35,ENE,72,0.0,0.0,90,0.00,,---,0.00,VWS V14.01,2013-03-23 11:09:00,
2013-03-23 04:14:00,32.2,29.6,30.35,ENE,72,0.0,0.0,90,0.00,,---,0.00,VWS V14.01,2013-03-23 11:14:00,
2013-03-23 04:19:00,32.2,29.6,30.35,ENE,72,0.0,0.0,90,0.00,,---,0.00,VWS V14.01,2013-03-23 11:19:00,
2013-03-23 04:24:00,32.2,29.6,30.35,ENE,72,0.0,0.0,90,0.00,,---,0.00,VWS V14.01,2013-03-23 11:24:00,
2013-03-23 04:29:00,32.2,29.6,30.35,ENE,72,0.0,0.0,90,0.00,,---,0.00,VWS V14.01,2013-03-23 11:29:00,
2013-03-23 04:34:00,32.2,29.6,30.35,ENE,72,0.0,0.0,90,0.00,,---,0.00,VWS V14.01,2013-03-23 11:34:00,
2013-03-23 04:39:00,32.2,29.9,30.35,ENE,72,0.0,0.0,91,0.00,,---,0.00,VWS V14.01,2013-03-23 11:39:00,
2013-03-23 04:44:00,32.2,29.9,30.35,ENE,72,0.0,0.0,91,0.00,,---,0.00,VWS V14.01,2013-03-23 11:44:00,
2013-03-23 04:49:00,32.2,29.9,30.35,ENE,72,0.0,0.0,91,0.00,,---,0.00,VWS V14.01,2013-03-23 11:49:00,
2013-03-23 04:54:00,32.2,29.9,30.35,ENE,72,0.0,0.0,91,0.00,,---,0.00,VWS V14.01,2013-03-23 11:54:00,
2013-03-23 04:59:00,32.2,29.9,30.35,ENE,72,0.0,0.0,91,0.00,,---,0.00,VWS V14.01,2013-03-23 11:59:00,
2013-03-23 05:04:00,32.2,29.9,30.35,ENE,72,0.0,0.0,91,0.00,,---,0.00,VWS V14.01,2013-03-23 12:04:00,
2013-03-23 05:09:00,32.2,29.9,30.35,ENE,72,0.0,0.0,91,0.00,,---,0.00,VWS V14.01,2013-03-23 12:09:00,
2013-03-23 05:14:00,32.2,29.9,30.35,ENE,72,0.0,0.0,91,0.00,,---,0.00,VWS V14.01,2013-03-23 12:14:00,
2013-03-23 05:19:00,32.2,29.9,30.35,ENE,72,0.0,0.0,91,0.00,,---,0.00,VWS V14.01,2013-03-23 12:19:00,
2013-03-23 05:24:00,32.2,29.9,30.35,ENE,72,0.0,0.0,91,0.00,,---,0.00,VWS V14.01,2013-03-23 12:24:00,
2013-03-23 05:29:00,32.2,29.9,30.35,ENE,72,0.0,0.0,91,0.00,,---,0.00,VWS V14.01,2013-03-23 12:29:00,
2013-03-23 05:34:00,32.2,29.9,30.35,ENE,72,0.0,0.0,91,0.00,,---,0.00,VWS V14.01,2013-03-23 12:34:00,
2013-03-23 05:39:00,32.4,30.0,30.35,ENE,72,0.0,0.0,91,0.00,,---,0.00,VWS V14.01,2013-03-23 12:39:00,
2013-03-23 05:44:00,32.4,30.0,30.35,ENE,72,0.0,0.0,91,0.00,,---,0.00,VWS V14.01,2013-03-23 12:44:00,
2013-03-23 05:49:00,32.4,30.0,30.35,ENE,72,0.0,0.0,91,0.00,,---,0.00,VWS V14.01,2013-03-23 12:49:00,
2013-03-23 05:54:00,32.4,30.0,30.35,ENE,72,0.0,0.0,91,0.00,,---,0.00,VWS V14.01,2013-03-23 12:54:00,
2013-03-23 05:59:00,32.4,30.0,30.35,ENE,72,0.0,0.0,91,0.00,,---,0.00,VWS V14.01,2013-03-23 12:59:00,
2013-03-23 06:04:00,32.4,30.0,30.35,ENE,72,0.0,0.0,91,0.00,,---,0.00,VWS V14.01,2013-03-23 13:04:00,
2013-03-23 06:09:00,32.5,30.2,30.35,ENE,72,0.0,0.0,91,0.00,,---,0.00,VWS V14.01,2013-03-23 13:09:00,
2013-03-23 06:14:00,32.5,30.2,30.35,ENE,72,0.0,0.0,91,0.00,,---,0.00,VWS V14.01,2013-03-23 13:14:00,
2013-03-23 06:19:00,32.5,30.2,30.35,ENE,72,0.0,0.0,91,0.00,,---,0.00,VWS V14.01,2013-03-23 13:19:00,
2013-03-23 06:24:00,32.5,30.2,30.35,ENE,72,0.0,0.0,91,0.00,,---,0.00,VWS V14.01,2013-03-23 13:24:00,
2013-03-23 06:29:00,32.5,30.2,30.35,ENE,72,0.0,0.0,91,0.00,,---,0.00,VWS V14.01,2013-03-23 13:29:00,
2013-03-23 06:34:00,32.5,30.2,30.35,ENE,72,0.0,0.0,91,0.00,,---,0.00,VWS V14.01,2013-03-23 13:34:00,
2013-03-23 06:39:00,32.5,30.2,30.35,ENE,72,0.0,0.0,91,0.00,,---,0.00,VWS V14.01,2013-03-23 13:39:00,
2013-03-23 06:44:00,32.5,30.2,30.35,ENE,72,0.0,0.0,91,0.00,,---,0.00,VWS V14.01,2013-03-23 13:44:00,
2013-03-23 06:49:00,32.5,30.2,30.35,ENE,72,0.0,0.0,91,0.00,,---,0.00,VWS V14.01,2013-03-23 13:49:00,
2013-03-23 06:54:00,32.4,30.0,30.35,ENE,72,0.0,0.0,91,0.00,,---,0.00,VWS V14.01,2013-03-23 13:54:00,
2013-03-23 06:59:00,32.4,30.0,30.35,ENE,72,0.0,0.0,91,0.00,,---,0.00,VWS V14.01,2013-03-23 13:59:00,
2013-03-23 07:04:00,32.2,29.9,30.35,ENE,72,0.0,0.0,91,0.00,,---,0.00,VWS V14.01,2013-03-23 14:04:00,
2013-03-23 07:09:00,32.2,29.9,30.35,ENE,72,0.0,0.0,91,0.00,,---,0.00,VWS V14.01,2013-03-23 14:09:00,
2013-03-23 07:14:00,32.2,29.9,30.35,ENE,72,0.0,0.0,91,0.00,,---,0.00,VWS V14.01,2013-03-23 14:14:00,
2013-03-23 07:19:00,32.2,29.9,30.35,ENE,72,0.0,0.0,91,0.00,,---,0.00,VWS V14.01,2013-03-23 14:19:00,
2013-03-23 07:24:00,32.0,29.7,30.35,ENE,72,0.0,0.0,91,0.00,,---,0.00,VWS V14.01,2013-03-23 14:24:00,
2013-03-23 07:29:00,32.0,29.7,30.35,ENE,72,0.0,0.0,91,0.00,,---,0.00,VWS V14.01,2013-03-23 14:29:00,
2013-03-23 07:34:00,32.0,29.7,30.35,ENE,72,0.0,0.0,91,0.00,,---,0.00,VWS V14.01,2013-03-23 14:34:00,
2013-03-23 07:39:00,32.0,29.7,30.35,ENE,72,0.0,0.0,91,0.00,,---,0.00,VWS V14.01,2013-03-23 14:39:00,
2013-03-23 07:44:00,32.0,29.7,30.35,ENE,72,0.0,0.0,91,0.00,,---,0.00,VWS V14.01,2013-03-23 14:44:00,
2013-03-23 07:49:00,32.0,29.7,30.35,ENE,72,0.0,0.0,91,0.00,,---,0.00,VWS V14.01,2013-03-23 14:49:00,
2013-03-23 07:54:00,32.0,29.7,30.35,ENE,72,0.0,0.0,91,0.00,,---,0.00,VWS V14.01,2013-03-23 14:54:00,
2013-03-23 07:59:00,32.0,29.7,30.35,ENE,72,0.0,0.0,91,0.00,,---,0.00,VWS V14.01,2013-03-23 14:59:00,
2013-03-23 08:04:00,32.0,29.7,30.35,ENE,72,0.0,0.0,91,0.00,,---,0.00,VWS V14.01,2013-03-23 15:04:00,
2013-03-23 08:09:00,32.2,29.9,30.35,ENE,72,0.0,0.0,91,0.00,,---,0.00,VWS V14.01,2013-03-23 15:09:00,
2013-03-23 08:14:00,32.2,30.1,30.35,ENE,72,0.0,0.0,92,0.00,,---,0.00,VWS V14.01,2013-03-23 15:14:00,
2013-03-23 08:19:00,32.2,30.1,30.35,ENE,72,0.0,0.0,92,0.00,,---,0.00,VWS V14.01,2013-03-23 15:19:00,
2013-03-23 08:24:00,32.4,30.3,30.35,ENE,72,0.0,0.0,92,0.00,,---,0.00,VWS V14.01,2013-03-23 15:24:00,
2013-03-23 08:29:00,32.5,30.5,30.35,ENE,72,0.0,0.0,92,0.00,,---,0.00,VWS V14.01,2013-03-23 15:29:00,
2013-03-23 08:34:00,32.5,30.5,30.35,ENE,72,0.0,0.0,92,0.00,,---,0.00,VWS V14.01,2013-03-23 15:34:00,
2013-03-23 08:39:00,32.7,30.7,30.35,ENE,72,0.0,0.0,92,0.00,,---,0.00,VWS V14.01,2013-03-23 15:39:00,
2013-03-23 08:44:00,32.9,30.8,30.35,ENE,72,0.0,0.0,92,0.00,,---,0.00,VWS V14.01,2013-03-23 15:44:00,
2013-03-23 08:49:00,33.1,31.0,30.35,ENE,72,0.0,0.0,92,0.00,,---,0.00,VWS V14.01,2013-03-23 15:49:00,
2013-03-23 08:54:00,33.1,31.3,30.35,ENE,72,0.0,0.0,93,0.00,,---,0.00,VWS V14.01,2013-03-23 15:54:00,
2013-03-23 08:59:00,33.3,31.5,30.35,ENE,72,0.0,0.0,93,0.00,,---,0.00,VWS V14.01,2013-03-23 15:59:00,
2013-03-23 09:04:00,33.4,31.6,30.35,ENE,72,0.0,0.0,93,0.00,,---,0.00,VWS V14.01,2013-03-23 16:04:00,
2013-03-23 09:09:00,33.6,31.8,30.35,ENE,72,0.0,0.0,93,0.00,,---,0.00,VWS V14.01,2013-03-23 16:09:00,
2013-03-23 09:14:00,33.6,31.8,30.35,ENE,72,0.0,0.0,93,0.00,,---,0.00,VWS V14.01,2013-03-23 16:14:00,
2013-03-23 09:19:00,33.6,31.8,30.35,ENE,72,0.0,0.0,93,0.00,,---,0.00,VWS V14.01,2013-03-23 16:19:00,
2013-03-23 09:24:00,34.0,32.2,30.35,ENE,72,0.0,0.0,93,0.00,,---,0.00,VWS V14.01,2013-03-23 16:24:00,
2013-03-23 09:29:00,34.0,32.2,30.35,ENE,72,0.0,0.0,93,0.00,,---,0.00,VWS V14.01,2013-03-23 16:29:00,
2013-03-23 09:34:00,34.0,32.2,30.35,ENE,72,0.0,0.0,93,0.00,,---,0.00,VWS V14.01,2013-03-23 16:34:00,
2013-03-23 09:39:00,34.3,32.8,30.35,ENE,72,0.0,0.0,94,0.00,,---,0.00,VWS V14.01,2013-03-23 16:39:00,
2013-03-23 09:44:00,34.5,33.0,30.35,WSW,243,0.0,0.0,94,0.00,,---,0.00,VWS V14.01,2013-03-23 16:44:00,
2013-03-23 09:49:00,34.5,33.0,30.35,West,279,0.0,0.0,94,0.00,,---,0.00,VWS V14.01,2013-03-23 16:49:00,
2013-03-23 09:54:00,34.5,33.0,30.35,NE,53,0.0,0.0,94,0.00,,---,0.00,VWS V14.01,2013-03-23 16:54:00,
2013-03-23 09:59:00,34.5,33.0,30.35,NE,55,0.0,0.0,94,0.00,,---,0.00,VWS V14.01,2013-03-23 16:59:00,
2013-03-23 10:04:00,35.2,34.0,30.35,ENE,71,0.0,0.0,95,0.00,,---,0.00,VWS V14.01,2013-03-23 17:04:00,
2013-03-23 10:09:00,35.2,34.0,30.35,ENE,71,0.0,0.0,95,0.00,,---,0.00,VWS V14.01,2013-03-23 17:09:00,
2013-03-23 10:14:00,35.6,34.3,30.35,ENE,75,0.0,0.0,95,0.00,,---,0.00,VWS V14.01,2013-03-23 17:14:00,
2013-03-23 10:19:00,35.6,34.3,30.35,NE,42,0.0,0.0,95,0.00,,---,0.00,VWS V14.01,2013-03-23 17:19:00,
2013-03-23 10:24:00,35.6,34.3,30.35,WSW,248,4.0,4.0,95,0.00,,---,0.00,VWS V14.01,2013-03-23 17:24:00,
2013-03-23 10:29:00,36.1,34.8,30.35,East,85,0.0,0.0,95,0.00,,---,0.00,VWS V14.01,2013-03-23 17:29:00,
2013-03-23 10:34:00,36.3,35.0,30.35,ESE,105,0.0,0.0,95,0.00,,---,0.00,VWS V14.01,2013-03-23 17:34:00,
2013-03-23 10:39:00,37.0,36.0,30.35,SE,133,0.0,0.0,96,0.00,,---,0.00,VWS V14.01,2013-03-23 17:39:00,
2013-03-23 10:44:00,37.6,36.5,30.35,WNW,282,0.0,0.0,96,0.00,,---,0.00,VWS V14.01,2013-03-23 17:44:00,
2013-03-23 10:49:00,37.6,36.5,30.35,SSE,159,3.1,3.1,96,0.00,,---,0.00,VWS V14.01,2013-03-23 17:49:00,
2013-03-23 10:54:00,38.3,37.3,30.35,SW,217,0.0,0.0,96,0.00,,---,0.00,VWS V14.01,2013-03-23 17:54:00,
2013-03-23 10:59:00,38.5,37.4,30.35,ENE,78,0.0,0.0,96,0.00,,---,0.00,VWS V14.01,2013-03-23 17:59:00,
2013-03-23 11:04:00,39.0,38.0,30.35,ENE,78,0.0,0.0,96,0.00,,---,0.00,VWS V14.01,2013-03-23 18:04:00,
2013-03-23 11:09:00,39.0,38.0,30.35,WSW,237,0.0,4.0,96,0.00,,---,0.00,VWS V14.01,2013-03-23 18:09:00,
2013-03-23 11:14:00,39.0,38.0,30.35,ESE,122,0.0,0.0,96,0.00,,---,0.00,VWS V14.01,2013-03-23 18:14:00,
2013-03-23 11:19:00,39.7,38.2,30.35,WNW,301,4.0,4.0,94,0.00,,---,0.00,VWS V14.01,2013-03-23 18:19:00,
2013-03-23 11:24:00,39.9,38.3,30.35,SW,234,0.0,0.0,94,0.00,,---,0.00,VWS V14.01,2013-03-23 18:24:00,
2013-03-23 11:29:00,39.9,38.3,30.35,South,187,0.0,0.0,94,0.00,,---,0.00,VWS V14.01,2013-03-23 18:29:00,
2013-03-23 11:34:00,40.5,38.0,30.35,WSW,253,0.0,0.0,91,0.00,,---,0.00,VWS V14.01,2013-03-23 18:34:00,
2013-03-23 11:39:00,40.6,38.2,30.35,WNW,282,3.1,3.1,91,0.00,,---,0.00,VWS V14.01,2013-03-23 18:39:00,
2013-03-23 11:44:00,41.0,38.0,30.35,SSW,206,0.0,0.0,89,0.00,,---,0.00,VWS V14.01,2013-03-23 18:44:00,
2013-03-23 11:49:00,41.0,38.0,30.35,WNW,287,0.0,0.0,89,0.00,,---,0.00,VWS V14.01,2013-03-23 18:49:00,
2013-03-23 11:54:00,41.0,38.0,30.35,South,181,0.0,0.0,89,0.00,,---,0.00,VWS V14.01,2013-03-23 18:54:00,
2013-03-23 11:59:00,42.4,39.1,30.35,East,101,0.0,0.0,88,0.00,,---,0.00,VWS V14.01,2013-03-23 18:59:00,
2013-03-23 12:04:00,42.8,39.2,30.35,South,172,0.0,0.0,87,0.00,,---,0.00,VWS V14.01,2013-03-23 19:04:00,
2013-03-23 12:09:00,42.8,39.2,30.35,WNW,299,3.1,3.1,87,0.00,,---,0.00,VWS V14.01,2013-03-23 19:09:00,
2013-03-23 12:14:00,43.5,39.3,30.35,North,6,0.0,0.0,85,0.00,,---,0.00,VWS V14.01,2013-03-23 19:14:00,
2013-03-23 12:19:00,43.5,39.3,30.35,West,265,0.0,0.0,85,0.00,,---,0.00,VWS V14.01,2013-03-23 19:19:00,
2013-03-23 12:24:00,44.1,39.5,30.35,West,268,0.0,2.7,84,0.00,,---,0.00,VWS V14.01,2013-03-23 19:24:00,
2013-03-23 12:29:00,44.2,39.1,30.35,SW,233,0.0,0.0,82,0.00,,---,0.00,VWS V14.01,2013-03-23 19:29:00,
2013-03-23 12:34:00,44.2,39.1,30.32,SW,223,0.0,0.0,82,0.00,,---,0.00,VWS V14.01,2013-03-23 19:34:00,
2013-03-23 12:39:00,45.1,39.0,30.32,WNW,290,0.0,0.0,79,0.00,,---,0.00,VWS V14.01,2013-03-23 19:39:00,
2013-03-23 12:44:00,45.3,39.2,30.32,SSE,149,3.6,3.6,79,0.00,,---,0.00,VWS V14.01,2013-03-23 19:44:00,
2013-03-23 12:49:00,45.7,39.2,30.32,ESE,106,0.0,0.0,78,0.00,,---,0.00,VWS V14.01,2013-03-23 19:49:00,
2013-03-23 12:54:00,45.9,39.4,30.32,SW,214,0.0,0.0,78,0.00,,---,0.00,VWS V14.01,2013-03-23 19:54:00,
2013-03-23 12:59:00,45.9,39.4,30.32,East,84,2.2,2.2,78,0.00,,---,0.00,VWS V14.01,2013-03-23 19:59:00,
2013-03-23 13:04:00,46.2,39.4,30.32,NE,35,3.6,3.6,77,0.00,,---,0.00,VWS V14.01,2013-03-23 20:04:00,
2013-03-23 13:09:00,46.4,39.3,30.32,WSW,248,3.1,3.1,76,0.00,,---,0.00,VWS V14.01,2013-03-23 20:09:00,
2013-03-23 13:14:00,46.6,38.4,30.32,West,281,0.0,0.0,73,0.00,,---,0.00,VWS V14.01,2013-03-23 20:14:00,
2013-03-23 13:19:00,46.9,37.7,30.32,SE,128,0.0,0.0,70,0.00,,---,0.00,VWS V14.01,2013-03-23 20:19:00,
2013-03-23 13:24:00,46.9,37.7,30.32,SE,132,2.7,2.7,70,0.00,,---,0.00,VWS V14.01,2013-03-23 20:24:00,
2013-03-23 13:29:00,46.9,37.7,30.32,SW,232,0.0,0.0,70,0.00,,---,0.00,VWS V14.01,2013-03-23 20:29:00,
2013-03-23 13:34:00,47.3,36.9,30.32,ENE,72,0.0,0.0,67,0.00,,---,0.00,VWS V14.01,2013-03-23 20:34:00,
2013-03-23 13:39:00,47.3,36.5,30.32,ENE,72,0.0,0.0,66,0.00,,---,0.00,VWS V14.01,2013-03-23 20:39:00,
2013-03-23 13:44:00,47.3,35.8,30.32,WSW,239,2.7,2.7,64,0.00,,---,0.00,VWS V14.01,2013-03-23 20:44:00,
2013-03-23 13:49:00,47.3,35.8,30.29,SSE,163,0.0,0.0,64,0.00,,---,0.00,VWS V14.01,2013-03-23 20:49:00,
2013-03-23 13:54:00,47.3,34.1,30.29,NW,307,0.0,0.0,60,0.00,,---,0.00,VWS V14.01,2013-03-23 20:54:00,
2013-03-23 13:59:00,47.3,34.5,30.29,NW,307,0.0,0.0,61,0.00,,---,0.00,VWS V14.01,2013-03-23 20:59:00,
2013-03-23 14:04:00,47.1,33.5,30.29,South,186,5.8,5.8,59,0.00,,---,0.00,VWS V14.01,2013-03-23 21:04:00,
2013-03-23 14:09:00,47.3,33.7,30.29,NNW,327,0.0,0.0,59,0.00,,---,0.00,VWS V14.01,2013-03-23 21:09:00,
2013-03-23 14:14:00,47.3,33.7,30.29,NNE,28,0.0,0.0,59,0.00,,---,0.00,VWS V14.01,2013-03-23 21:14:00,
2013-03-23 14:19:00,47.3,33.7,30.29,ENE,73,0.0,2.2,59,0.00,,---,0.00,VWS V14.01,2013-03-23 21:19:00,
2013-03-23 14:24:00,47.7,33.6,30.29,ENE,73,0.0,0.0,58,0.00,,---,0.00,VWS V14.01,2013-03-23 21:24:00,
2013-03-23 14:29:00,48.0,34.0,30.29,East,81,3.6,3.6,58,0.00,,---,0.00,VWS V14.01,2013-03-23 21:29:00,
2013-03-23 14:34:00,48.4,34.7,30.29,ENE,76,2.7,2.7,59,0.00,,---,0.00,VWS V14.01,2013-03-23 21:34:00,
2013-03-23 14:39:00,48.4,34.3,30.29,WNW,291,4.0,4.0,58,0.00,,---,0.00,VWS V14.01,2013-03-23 21:39:00,
2013-03-23 14:44:00,48.4,34.3,30.29,WNW,302,3.1,3.1,58,0.00,,---,0.00,VWS V14.01,2013-03-23 21:44:00,
2013-03-23 14:49:00,48.7,34.2,30.29,North,3,0.0,0.0,57,0.00,,---,0.00,VWS V14.01,2013-03-23 21:49:00,
2013-03-23 14:54:00,48.7,34.2,30.29,NW,318,2.7,2.7,57,0.00,,---,0.00,VWS V14.01,2013-03-23 21:54:00,
2013-03-23 14:59:00,48.9,33.5,30.29,WNW,287,3.1,3.1,55,0.00,,---,0.00,VWS V14.01,2013-03-23 21:59:00,
2013-03-23 15:04:00,48.9,33.5,30.29,WNW,299,2.7,2.7,55,0.00,,---,0.00,VWS V14.01,2013-03-23 22:04:00,
2013-03-23 15:09:00,48.9,32.6,30.29,SW,234,2.2,2.2,53,0.00,,---,0.00,VWS V14.01,2013-03-23 22:09:00,
2013-03-23 15:14:00,48.9,32.6,30.29,SSW,204,0.0,0.0,53,0.00,,---,0.00,VWS V14.01,2013-03-23 22:14:00,
2013-03-23 15:19:00,48.7,30.5,30.29,SSW,204,0.0,0.0,49,0.00,,---,0.00,VWS V14.01,2013-03-23 22:19:00,
2013-03-23 15:24:00,48.7,31.4,30.29,SW,222,0.0,6.3,51,0.00,,---,0.00,VWS V14.01,2013-03-23 22:24:00,
2013-03-23 15:29:00,48.7,31.4,30.29,WNW,300,5.4,5.4,51,0.00,,---,0.00,VWS V14.01,2013-03-23 22:29:00,
2013-03-23 15:34:00,48.7,31.4,30.29,NW,310,2.2,2.2,51,0.00,,---,0.00,VWS V14.01,2013-03-23 22:34:00,
2013-03-23 15:39:00,48.6,30.8,30.29,West,276,4.9,4.9,50,0.00,,---,0.00,VWS V14.01,2013-03-23 22:39:00,
2013-03-23 15:44:00,48.6,30.8,30.29,West,270,3.6,3.6,50,0.00,,---,0.00,VWS V14.01,2013-03-23 22:44:00,
2013-03-23 15:49:00,48.6,30.3,30.29,WNW,285,7.6,7.6,49,0.00,,---,0.00,VWS V14.01,2013-03-23 22:49:00,
2013-03-23 15:54:00,48.6,30.3,30.29,West,273,2.7,2.7,49,0.00,,---,0.00,VWS V14.01,2013-03-23 22:54:00,
2013-03-23 15:59:00,48.4,30.1,30.29,West,273,2.7,2.7,49,0.00,,---,0.00,VWS V14.01,2013-03-23 22:59:00,
2013-03-23 16:04:00,48.4,30.1,30.29,West,259,2.7,2.7,49,0.00,,---,0.00,VWS V14.01,2013-03-23 23:04:00,
2013-03-23 16:09:00,48.4,30.1,30.29,West,273,0.0,0.0,49,0.00,,---,0.00,VWS V14.01,2013-03-23 23:09:00,
2013-03-23 16:14:00,48.4,30.1,30.29,WNW,291,0.0,0.0,49,0.00,,---,0.00,VWS V14.01,2013-03-23 23:14:00,
2013-03-23 16:19:00,48.4,30.1,30.29,NNW,329,3.1,3.1,49,0.00,,---,0.00,VWS V14.01,2013-03-23 23:19:00,
2013-03-23 16:24:00,48.4,29.6,30.29,West,265,3.6,3.6,48,0.00,,---,0.00,VWS V14.01,2013-03-23 23:24:00,
2013-03-23 16:29:00,48.4,29.6,30.29,NNE,27,3.6,3.6,48,0.00,,---,0.00,VWS V14.01,2013-03-23 23:29:00,
2013-03-23 16:34:00,48.4,29.6,30.29,NE,45,3.6,3.6,48,0.00,,---,0.00,VWS V14.01,2013-03-23 23:34:00,
2013-03-23 16:39:00,48.4,29.6,30.29,North,0,0.0,0.0,48,0.00,,---,0.00,VWS V14.01,2013-03-23 23:39:00,
2013-03-23 16:44:00,48.2,29.5,30.29,NNE,25,4.0,4.0,48,0.00,,---,0.00,VWS V14.01,2013-03-23 23:44:00,
2013-03-23 16:49:00,48.2,29.5,30.26,NE,38,0.0,0.0,48,0.00,,---,0.00,VWS V14.01,2013-03-23 23:49:00,
2013-03-23 16:54:00,48.2,29.5,30.26,ENE,77,2.2,2.2,48,0.00,,---,0.00,VWS V14.01,2013-03-23 23:54:00,
2013-03-23 16:59:00,48.0,29.3,30.26,ENE,77,0.0,0.0,48,0.00,,---,0.00,VWS V14.01,2013-03-23 23:59:00,
2013-03-23 17:04:00,47.8,29.1,30.26,ENE,77,0.0,0.0,48,0.00,,---,0.00,VWS V14.01,2013-03-24 00:04:00,
2013-03-23 17:09:00,47.8,28.6,30.26,West,266,0.0,3.1,47,0.00,,---,0.00,VWS V14.01,2013-03-24 00:09:00,
2013-03-23 17:14:00,47.8,28.6,30.26,SSW,210,0.0,0.0,47,0.00,,---,0.00,VWS V14.01,2013-03-24 00:14:00,
2013-03-23 17:19:00,47.8,28.6,30.26,SSW,210,0.0,0.0,47,0.00,,---,0.00,VWS V14.01,2013-03-24 00:19:00,
2013-03-23 17:24:00,47.8,28.1,30.26,ENE,68,0.0,3.1,46,0.00,,---,0.00,VWS V14.01,2013-03-24 00:24:00,
2013-03-23 17:29:00,47.8,28.1,30.26,East,99,3.6,3.6,46,0.00,,---,0.00,VWS V14.01,2013-03-24 00:29:00,
2013-03-23 17:34:00,47.8,28.6,30.26,West,267,3.1,3.1,47,0.00,,---,0.00,VWS V14.01,2013-03-24 00:34:00,
2013-03-23 17:39:00,47.8,28.6,30.26,NNW,340,0.0,0.0,47,0.00,,---,0.00,VWS V14.01,2013-03-24 00:39:00,
2013-03-23 17:44:00,47.8,28.6,30.26,West,277,0.0,0.0,47,0.00,,---,0.00,VWS V14.01,2013-03-24 00:44:00,
2013-03-23 17:49:00,47.8,28.6,30.26,WNW,286,0.0,0.0,47,0.00,,---,0.00,VWS V14.01,2013-03-24 00:49:00,
2013-03-23 17:54:00,47.7,27.9,30.26,NNE,19,0.0,0.0,46,0.00,,---,0.00,VWS V14.01,2013-03-24 00:54:00,
2013-03-23 17:59:00,47.7,27.9,30.26,NW,308,0.0,0.0,46,0.00,,---,0.00,VWS V14.01,2013-03-24 00:59:00,
2013-03-23 18:04:00,47.5,27.8,30.26,NE,44,2.7,3.1,46,0.00,,---,0.00,VWS V14.01,2013-03-24 01:04:00,
2013-03-23 18:09:00,47.5,27.8,30.26,NE,44,2.7,2.7,46,0.00,,---,0.00,VWS V14.01,2013-03-24 01:09:00,
2013-03-23 18:14:00,47.3,27.6,30.26,North,3,0.0,0.0,46,0.00,,---,0.00,VWS V14.01,2013-03-24 01:14:00,
2013-03-23 18:19:00,47.1,27.4,30.26,North,350,0.0,0.0,46,0.00,,---,0.00,VWS V14.01,2013-03-24 01:19:00,
2013-03-23 18:24:00,47.1,27.4,30.26,North,350,0.0,0.0,46,0.00,,---,0.00,VWS V14.01,2013-03-24 01:24:00,
2013-03-23 18:29:00,46.9,27.3,30.26,West,274,0.0,0.0,46,0.00,,---,0.00,VWS V14.01,2013-03-24 01:29:00,
2013-03-23 18:34:00,46.9,27.3,30.26,NW,321,2.7,2.7,46,0.00,,---,0.00,VWS V14.01,2013-03-24 01:34:00,
2013-03-23 18:39:00,46.9,27.3,30.26,NW,322,0.0,0.0,46,0.00,,---,0.00,VWS V14.01,2013-03-24 01:39:00,
2013-03-23 18:44:00,46.6,27.5,30.26,NW,323,0.0,0.0,47,0.00,,---,0.00,VWS V14.01,2013-03-24 01:44:00,
2013-03-23 18:49:00,46.6,27.5,30.26,NNW,332,0.0,0.0,47,0.00,,---,0.00,VWS V14.01,2013-03-24 01:49:00,
2013-03-23 18:54:00,46.4,27.3,30.26,NNW,339,0.0,0.0,47,0.00,,---,0.00,VWS V14.01,2013-03-24 01:54:00,
2013-03-23 18:59:00,46.2,27.1,30.26,NNW,339,0.0,0.0,47,0.00,,---,0.00,VWS V14.01,2013-03-24 01:59:00,
2013-03-23 19:04:00,46.2,27.1,30.26,NNW,338,0.0,0.0,47,0.00,,---,0.00,VWS V14.01,2013-03-24 02:04:00,
2013-03-23 19:09:00,45.9,27.3,30.26,NNW,338,0.0,0.0,48,0.00,,---,0.00,VWS V14.01,2013-03-24 02:09:00,
2013-03-23 19:14:00,45.9,27.3,30.26,NNW,335,0.0,0.0,48,0.00,,---,0.00,VWS V14.01,2013-03-24 02:14:00,
2013-03-23 19:19:00,45.3,26.8,30.26,NNW,335,0.0,0.0,48,0.00,,---,0.00,VWS V14.01,2013-03-24 02:19:00,
2013-03-23 19:24:00,45.3,26.8,30.26,NNW,336,0.0,0.0,48,0.00,,---,0.00,VWS V14.01,2013-03-24 02:24:00,
2013-03-23 19:29:00,45.3,26.8,30.26,NNW,336,0.0,0.0,48,0.00,,---,0.00,VWS V14.01,2013-03-24 02:29:00,
2013-03-23 19:34:00,44.6,26.1,30.26,NNW,336,0.0,0.0,48,0.00,,---,0.00,VWS V14.01,2013-03-24 02:34:00,
2013-03-23 19:39:00,44.2,25.8,30.26,NNW,336,0.0,0.0,48,0.00,,---,0.00,VWS V14.01,2013-03-24 02:39:00,
2013-03-23 19:44:00,44.2,25.8,30.26,NNW,336,0.0,0.0,48,0.00,,---,0.00,VWS V14.01,2013-03-24 02:44:00,
2013-03-23 19:49:00,44.1,25.6,30.26,NNW,327,0.0,0.0,48,0.00,,---,0.00,VWS V14.01,2013-03-24 02:49:00,
2013-03-23 19:54:00,43.7,25.3,30.26,NNW,327,0.0,0.0,48,0.00,,---,0.00,VWS V14.01,2013-03-24 02:54:00,
2013-03-23 19:59:00,43.7,25.8,30.26,NNW,327,0.0,0.0,49,0.00,,---,0.00,VWS V14.01,2013-03-24 02:59:00,
2013-03-23 20:04:00,43.7,25.8,30.26,NNW,327,0.0,0.0,49,0.00,,---,0.00,VWS V14.01,2013-03-24 03:04:00,
2013-03-23 20:09:00,43.5,25.6,30.26,NNW,327,0.0,0.0,49,0.00,,---,0.00,VWS V14.01,2013-03-24 03:09:00,
2013-03-23 20:14:00,43.3,25.5,30.26,NNW,327,0.0,0.0,49,0.00,,---,0.00,VWS V14.01,2013-03-24 03:14:00,
2013-03-23 20:19:00,43.3,25.5,30.26,NNW,327,0.0,0.0,49,0.00,,---,0.00,VWS V14.01,2013-03-24 03:19:00,
2013-03-23 20:24:00,43.0,25.6,30.26,NNW,327,0.0,0.0,50,0.00,,---,0.00,VWS V14.01,2013-03-24 03:24:00,
2013-03-23 20:29:00,43.0,25.6,30.26,NNW,327,0.0,0.0,50,0.00,,---,0.00,VWS V14.01,2013-03-24 03:29:00,
2013-03-23 20:34:00,42.8,25.5,30.26,NNW,327,0.0,0.0,50,0.00,,---,0.00,VWS V14.01,2013-03-24 03:34:00,
2013-03-23 20:39:00,42.6,25.3,30.26,NNW,327,0.0,0.0,50,0.00,,---,0.00,VWS V14.01,2013-03-24 03:39:00,
2013-03-23 20:44:00,42.4,25.1,30.26,NNW,327,0.0,0.0,50,0.00,,---,0.00,VWS V14.01,2013-03-24 03:44:00,
2013-03-23 20:49:00,42.3,25.0,30.26,NNW,327,0.0,0.0,50,0.00,,---,0.00,VWS V14.01,2013-03-24 03:49:00,
2013-03-23 20:54:00,42.1,25.3,30.26,NNW,327,0.0,0.0,51,0.00,,---,0.00,VWS V14.01,2013-03-24 03:54:00,
2013-03-23 20:59:00,41.7,24.9,30.26,NNW,327,0.0,0.0,51,0.00,,---,0.00,VWS V14.01,2013-03-24 03:59:00,
2013-03-23 21:00:00,41.5,24.8,30.26,NNW,327,0.0,0.0,51,0.00,,---,0.00,VWS V14.01,2013-03-24 04:00:00,
2013-03-23 21:05:00,41.4,24.6,30.26,NNW,327,0.0,0.0,51,0.00,,---,0.00,VWS V14.01,2013-03-24 04:05:00,
2013-03-23 21:10:00,41.2,24.4,30.26,NNW,327,0.0,0.0,51,0.00,,---,0.00,VWS V14.01,2013-03-24 04:10:00,
2013-03-23 21:15:00,40.8,24.6,30.26,NNW,327,0.0,0.0,52,0.00,,---,0.00,VWS V14.01,2013-03-24 04:15:00,
2013-03-23 21:20:00,40.6,24.9,30.26,NNW,327,0.0,0.0,53,0.00,,---,0.00,VWS V14.01,2013-03-24 04:20:00,
2013-03-23 21:25:00,40.5,24.7,30.26,NNW,327,0.0,0.0,53,0.00,,---,0.00,VWS V14.01,2013-03-24 04:25:00,
2013-03-23 21:30:00,40.3,24.5,30.26,NNW,327,0.0,0.0,53,0.00,,---,0.00,VWS V14.01,2013-03-24 04:30:00,
2013-03-23 21:35:00,40.3,24.5,30.26,NNW,327,0.0,0.0,53,0.00,,---,0.00,VWS V14.01,2013-03-24 04:35:00,
2013-03-23 21:40:00,40.3,24.5,30.26,NNW,327,0.0,0.0,53,0.00,,---,0.00,VWS V14.01,2013-03-24 04:40:00,
2013-03-23 21:45:00,39.7,24.5,30.26,NNW,327,0.0,0.0,54,0.00,,---,0.00,VWS V14.01,2013-03-24 04:45:00,
2013-03-23 21:50:00,39.4,24.6,30.26,NNW,333,0.0,0.0,55,0.00,,---,0.00,VWS V14.01,2013-03-24 04:50:00,
2013-03-23 21:55:00,39.2,24.4,30.26,NNW,333,0.0,0.0,55,0.00,,---,0.00,VWS V14.01,2013-03-24 04:55:00,
2013-03-23 22:00:00,39.2,24.4,30.26,NNW,333,0.0,0.0,55,0.00,,---,0.00,VWS V14.01,2013-03-24 05:00:00,
2013-03-23 22:05:00,39.2,24.4,30.26,NNW,333,0.0,0.0,55,0.00,,---,0.00,VWS V14.01,2013-03-24 05:05:00,
2013-03-23 22:10:00,38.5,24.2,30.26,NNW,333,0.0,0.0,56,0.00,,---,0.00,VWS V14.01,2013-03-24 05:10:00,
2013-03-23 22:15:00,38.1,24.2,30.26,NW,317,0.0,0.0,57,0.00,,---,0.00,VWS V14.01,2013-03-24 05:15:00,
2013-03-23 22:20:00,38.1,24.2,30.26,NW,317,0.0,0.0,57,0.00,,---,0.00,VWS V14.01,2013-03-24 05:20:00,
2013-03-23 22:25:00,38.1,24.2,30.26,NW,317,0.0,0.0,57,0.00,,---,0.00,VWS V14.01,2013-03-24 05:25:00,
2013-03-23 22:30:00,38.1,24.2,30.26,NW,305,0.0,0.0,57,0.00,,---,0.00,VWS V14.01,2013-03-24 05:30:00,
2013-03-23 22:35:00,37.4,24.0,30.26,NW,305,0.0,0.0,58,0.00,,---,0.00,VWS V14.01,2013-03-24 05:35:00,
2013-03-23 22:40:00,37.4,24.4,30.26,NW,305,0.0,0.0,59,0.00,,---,0.00,VWS V14.01,2013-03-24 05:40:00,
2013-03-23 22:45:00,37.0,24.1,30.26,NW,305,0.0,0.0,59,0.00,,---,0.00,VWS V14.01,2013-03-24 05:45:00,
2013-03-23 22:50:00,37.0,24.5,30.26,NW,305,0.0,0.0,60,0.00,,---,0.00,VWS V14.01,2013-03-24 05:50:00,
2013-03-23 22:55:00,37.0,24.5,30.26,NW,305,0.0,0.0,60,0.00,,---,0.00,VWS V14.01,2013-03-24 05:55:00,
2013-03-23 23:00:00,36.9,24.3,30.26,NW,305,0.0,0.0,60,0.00,,---,0.00,VWS V14.01,2013-03-24 06:00:00,
2013-03-23 23:05:00,36.9,24.3,30.26,NW,305,0.0,0.0,60,0.00,,---,0.00,VWS V14.01,2013-03-24 06:05:00,
2013-03-23 23:10:00,36.7,24.5,30.26,NW,305,0.0,0.0,61,0.00,,---,0.00,VWS V14.01,2013-03-24 06:10:00,
2013-03-23 23:15:00,36.7,24.5,30.26,NW,305,0.0,0.0,61,0.00,,---,0.00,VWS V14.01,2013-03-24 06:15:00,
2013-03-23 23:20:00,36.5,24.3,30.26,NW,305,0.0,0.0,61,0.00,,---,0.00,VWS V14.01,2013-03-24 06:20:00,
2013-03-23 23:25:00,36.3,24.2,30.26,NW,305,0.0,0.0,61,0.00,,---,0.00,VWS V14.01,2013-03-24 06:25:00,
2013-03-23 23:30:00,36.3,24.2,30.26,NW,305,0.0,0.0,61,0.00,,---,0.00,VWS V14.01,2013-03-24 06:30:00,
2013-03-23 23:35:00,36.0,24.2,30.26,NW,305,0.0,0.0,62,0.00,,---,0.00,VWS V14.01,2013-03-24 06:35:00,
2013-03-23 23:40:00,35.6,23.9,30.26,NW,305,0.0,0.0,62,0.00,,---,0.00,VWS V14.01,2013-03-24 06:40:00,
2013-03-23 23:45:00,35.6,23.9,30.26,NW,305,0.0,0.0,62,0.00,,---,0.00,VWS V14.01,2013-03-24 06:45:00,
2013-03-23 23:50:00,35.2,23.9,30.26,NW,305,0.0,0.0,63,0.00,,---,0.00,VWS V14.01,2013-03-24 06:50:00,
2013-03-23 23:55:00,35.1,23.8,30.26,NW,305,0.0,0.0,63,0.00,,---,0.00,VWS V14.01,2013-03-24 06:55:00,